sensor_id;sensor_type;location;lat;lon;timestamp;temperature;humidity
15103;DHT22;7652;53.584;9.998;2022-07-25T00:00:43;21.50;99.90
15103;DHT22;7652;53.584;9.998;2022-07-25T00:03:47;21.50;99.90
15103;DHT22;7652;53.584;9.998;2022-07-25T00:06:50;21.50;99.90
15103;DHT22;7652;53.584;9.998;2022-07-25T00:09:53;21.50;99.90
15103;DHT22;7652;53.584;9.998;2022-07-25T00:12:58;21.50;99.90
15103;DHT22;7652;53.584;9.998;2022-07-25T00:16:01;21.50;99.90
15103;DHT22;7652;53.584;9.998;2022-07-25T00:19:04;21.50;99.90
15103;DHT22;7652;53.584;9.998;2022-07-25T00:22:07;21.60;99.90
15103;DHT22;7652;53.584;9.998;2022-07-25T00:25:10;21.50;99.90
15103;DHT22;7652;53.584;9.998;2022-07-25T00:28:14;21.60;99.90
15103;DHT22;7652;53.584;9.998;2022-07-25T00:31:17;21.60;99.90
15103;DHT22;7652;53.584;9.998;2022-07-25T00:34:21;21.60;99.90
15103;DHT22;7652;53.584;9.998;2022-07-25T00:37:24;21.60;99.90
15103;DHT22;7652;53.584;9.998;2022-07-25T00:40:27;21.60;99.90
15103;DHT22;7652;53.584;9.998;2022-07-25T00:43:31;21.60;99.90
15103;DHT22;7652;53.584;9.998;2022-07-25T00:46:37;21.60;99.90
15103;DHT22;7652;53.584;9.998;2022-07-25T00:49:42;21.60;99.90
15103;DHT22;7652;53.584;9.998;2022-07-25T00:52:45;21.50;99.90
15103;DHT22;7652;53.584;9.998;2022-07-25T00:55:48;21.50;99.90
15103;DHT22;7652;53.584;9.998;2022-07-25T00:58:53;21.50;99.90
15103;DHT22;7652;53.584;9.998;2022-07-25T01:01:56;21.50;99.90
15103;DHT22;7652;53.584;9.998;2022-07-25T01:05:05;21.50;99.90
15103;DHT22;7652;53.584;9.998;2022-07-25T01:08:12;21.50;99.90
15103;DHT22;7652;53.584;9.998;2022-07-25T01:11:15;21.40;99.90
15103;DHT22;7652;53.584;9.998;2022-07-25T01:14:20;21.40;99.90
15103;DHT22;7652;53.584;9.998;2022-07-25T01:17:23;21.40;99.90
15103;DHT22;7652;53.584;9.998;2022-07-25T01:20:29;21.30;99.90
15103;DHT22;7652;53.584;9.998;2022-07-25T01:23:32;21.30;99.90
15103;DHT22;7652;53.584;9.998;2022-07-25T01:26:36;21.30;99.90
15103;DHT22;7652;53.584;9.998;2022-07-25T01:29:39;21.30;99.90
15103;DHT22;7652;53.584;9.998;2022-07-25T01:32:43;21.20;99.90
15103;DHT22;7652;53.584;9.998;2022-07-25T01:35:48;21.20;99.90
15103;DHT22;7652;53.584;9.998;2022-07-25T01:38:51;21.20;99.90
15103;DHT22;7652;53.584;9.998;2022-07-25T01:41:55;21.20;99.90
15103;DHT22;7652;53.584;9.998;2022-07-25T01:44:58;21.10;99.90
15103;DHT22;7652;53.584;9.998;2022-07-25T01:48:01;21.10;99.90
15103;DHT22;7652;53.584;9.998;2022-07-25T01:51:06;21.10;99.90
15103;DHT22;7652;53.584;9.998;2022-07-25T01:54:11;21.10;99.90
15103;DHT22;7652;53.584;9.998;2022-07-25T01:57:15;21.10;99.90
15103;DHT22;7652;53.584;9.998;2022-07-25T02:00:18;21.10;99.90
15103;DHT22;7652;53.584;9.998;2022-07-25T02:03:21;21.10;99.90
15103;DHT22;7652;53.584;9.998;2022-07-25T02:06:35;21.10;99.90
15103;DHT22;7652;53.584;9.998;2022-07-25T02:09:38;21.10;99.90
15103;DHT22;7652;53.584;9.998;2022-07-25T02:12:42;21.10;99.90
15103;DHT22;7652;53.584;9.998;2022-07-25T02:15:45;21.00;99.90
15103;DHT22;7652;53.584;9.998;2022-07-25T02:18:48;20.90;99.90
15103;DHT22;7652;53.584;9.998;2022-07-25T02:21:52;20.90;99.90
15103;DHT22;7652;53.584;9.998;2022-07-25T02:24:55;20.90;99.90
15103;DHT22;7652;53.584;9.998;2022-07-25T02:27:58;20.90;99.90
15103;DHT22;7652;53.584;9.998;2022-07-25T02:31:02;20.90;99.90
15103;DHT22;7652;53.584;9.998;2022-07-25T02:34:05;20.90;99.90
15103;DHT22;7652;53.584;9.998;2022-07-25T02:37:10;20.90;99.90
15103;DHT22;7652;53.584;9.998;2022-07-25T02:40:14;20.90;99.90
15103;DHT22;7652;53.584;9.998;2022-07-25T02:43:18;20.90;99.90
15103;DHT22;7652;53.584;9.998;2022-07-25T02:46:22;20.90;99.90
15103;DHT22;7652;53.584;9.998;2022-07-25T02:49:25;20.80;99.90
15103;DHT22;7652;53.584;9.998;2022-07-25T02:52:29;20.80;99.90
15103;DHT22;7652;53.584;9.998;2022-07-25T02:55:32;20.80;99.90
15103;DHT22;7652;53.584;9.998;2022-07-25T02:58:35;20.80;99.90
15103;DHT22;7652;53.584;9.998;2022-07-25T03:01:40;20.80;99.90
15103;DHT22;7652;53.584;9.998;2022-07-25T03:04:43;20.80;99.90
15103;DHT22;7652;53.584;9.998;2022-07-25T03:07:48;20.80;99.90
15103;DHT22;7652;53.584;9.998;2022-07-25T03:10:51;20.80;99.90
15103;DHT22;7652;53.584;9.998;2022-07-25T03:13:54;20.80;99.90
15103;DHT22;7652;53.584;9.998;2022-07-25T03:16:57;20.80;99.90
15103;DHT22;7652;53.584;9.998;2022-07-25T03:20:00;20.90;99.90
15103;DHT22;7652;53.584;9.998;2022-07-25T03:23:04;20.90;99.90
15103;DHT22;7652;53.584;9.998;2022-07-25T03:26:07;20.90;99.90
15103;DHT22;7652;53.584;9.998;2022-07-25T03:29:10;20.80;99.90
15103;DHT22;7652;53.584;9.998;2022-07-25T03:32:14;20.80;99.90
15103;DHT22;7652;53.584;9.998;2022-07-25T03:35:17;20.80;99.90
15103;DHT22;7652;53.584;9.998;2022-07-25T03:38:21;20.80;99.90
15103;DHT22;7652;53.584;9.998;2022-07-25T03:41:25;20.80;99.90
15103;DHT22;7652;53.584;9.998;2022-07-25T03:44:29;20.80;99.90
15103;DHT22;7652;53.584;9.998;2022-07-25T03:47:32;20.80;99.90
15103;DHT22;7652;53.584;9.998;2022-07-25T03:50:35;20.80;99.90
15103;DHT22;7652;53.584;9.998;2022-07-25T03:53:39;20.80;99.90
15103;DHT22;7652;53.584;9.998;2022-07-25T03:57:00;20.90;99.90
15103;DHT22;7652;53.584;9.998;2022-07-25T04:00:04;20.80;99.90
15103;DHT22;7652;53.584;9.998;2022-07-25T04:03:08;20.80;99.90
15103;DHT22;7652;53.584;9.998;2022-07-25T04:06:11;20.90;99.90
15103;DHT22;7652;53.584;9.998;2022-07-25T04:09:15;20.80;99.90
15103;DHT22;7652;53.584;9.998;2022-07-25T04:12:18;20.80;99.90
15103;DHT22;7652;53.584;9.998;2022-07-25T04:15:21;20.80;99.90
15103;DHT22;7652;53.584;9.998;2022-07-25T04:18:24;20.90;99.90
15103;DHT22;7652;53.584;9.998;2022-07-25T04:21:29;20.90;99.90
15103;DHT22;7652;53.584;9.998;2022-07-25T04:24:34;20.90;99.90
15103;DHT22;7652;53.584;9.998;2022-07-25T04:27:37;21.00;99.90
15103;DHT22;7652;53.584;9.998;2022-07-25T04:30:40;21.00;99.90
15103;DHT22;7652;53.584;9.998;2022-07-25T04:33:46;21.10;99.90
15103;DHT22;7652;53.584;9.998;2022-07-25T04:36:49;21.10;99.90
15103;DHT22;7652;53.584;9.998;2022-07-25T04:39:53;21.20;99.90
15103;DHT22;7652;53.584;9.998;2022-07-25T04:42:56;21.20;99.90
15103;DHT22;7652;53.584;9.998;2022-07-25T04:45:59;21.20;99.90
15103;DHT22;7652;53.584;9.998;2022-07-25T04:49:03;21.20;99.90
15103;DHT22;7652;53.584;9.998;2022-07-25T04:52:06;21.30;99.90
15103;DHT22;7652;53.584;9.998;2022-07-25T04:55:10;21.30;99.90
15103;DHT22;7652;53.584;9.998;2022-07-25T04:58:13;21.30;99.90
15103;DHT22;7652;53.584;9.998;2022-07-25T05:01:16;21.50;99.90
15103;DHT22;7652;53.584;9.998;2022-07-25T05:04:20;21.50;99.90
15103;DHT22;7652;53.584;9.998;2022-07-25T05:07:23;21.50;99.90
15103;DHT22;7652;53.584;9.998;2022-07-25T05:10:29;21.60;99.90
15103;DHT22;7652;53.584;9.998;2022-07-25T05:13:32;21.60;99.90
15103;DHT22;7652;53.584;9.998;2022-07-25T05:16:35;21.70;99.90
15103;DHT22;7652;53.584;9.998;2022-07-25T05:19:38;21.70;99.90
15103;DHT22;7652;53.584;9.998;2022-07-25T05:22:41;21.70;99.90
15103;DHT22;7652;53.584;9.998;2022-07-25T05:25:45;21.70;99.90
15103;DHT22;7652;53.584;9.998;2022-07-25T05:28:48;21.70;99.90
15103;DHT22;7652;53.584;9.998;2022-07-25T05:31:51;21.80;99.90
15103;DHT22;7652;53.584;9.998;2022-07-25T05:34:55;21.90;99.90
15103;DHT22;7652;53.584;9.998;2022-07-25T05:37:58;22.00;99.90
15103;DHT22;7652;53.584;9.998;2022-07-25T05:41:03;22.10;99.90
15103;DHT22;7652;53.584;9.998;2022-07-25T05:44:06;22.20;99.90
15103;DHT22;7652;53.584;9.998;2022-07-25T05:47:10;22.30;99.90
15103;DHT22;7652;53.584;9.998;2022-07-25T05:50:14;22.50;99.90
15103;DHT22;7652;53.584;9.998;2022-07-25T05:53:16;22.80;99.90
15103;DHT22;7652;53.584;9.998;2022-07-25T05:56:21;23.10;99.90
15103;DHT22;7652;53.584;9.998;2022-07-25T05:59:24;23.40;99.90
15103;DHT22;7652;53.584;9.998;2022-07-25T06:02:27;23.60;99.90
15103;DHT22;7652;53.584;9.998;2022-07-25T06:05:30;23.70;99.90
15103;DHT22;7652;53.584;9.998;2022-07-25T06:08:33;23.70;99.90
15103;DHT22;7652;53.584;9.998;2022-07-25T06:11:39;24.10;99.90
15103;DHT22;7652;53.584;9.998;2022-07-25T06:14:55;24.50;99.90
15103;DHT22;7652;53.584;9.998;2022-07-25T06:18:00;24.80;99.90
15103;DHT22;7652;53.584;9.998;2022-07-25T06:21:03;25.30;99.90
15103;DHT22;7652;53.584;9.998;2022-07-25T06:24:07;25.70;99.90
15103;DHT22;7652;53.584;9.998;2022-07-25T06:27:12;25.70;99.90
15103;DHT22;7652;53.584;9.998;2022-07-25T06:30:21;25.40;99.90
15103;DHT22;7652;53.584;9.998;2022-07-25T06:33:24;25.20;99.90
15103;DHT22;7652;53.584;9.998;2022-07-25T06:36:27;25.30;99.90
15103;DHT22;7652;53.584;9.998;2022-07-25T06:39:33;25.50;99.90
15103;DHT22;7652;53.584;9.998;2022-07-25T06:42:38;25.80;99.90
15103;DHT22;7652;53.584;9.998;2022-07-25T06:45:42;26.10;99.90
15103;DHT22;7652;53.584;9.998;2022-07-25T06:48:48;26.40;99.90
15103;DHT22;7652;53.584;9.998;2022-07-25T06:51:51;26.70;99.90
15103;DHT22;7652;53.584;9.998;2022-07-25T06:54:54;26.80;99.90
15103;DHT22;7652;53.584;9.998;2022-07-25T06:57:58;26.70;99.90
15103;DHT22;7652;53.584;9.998;2022-07-25T07:01:01;26.50;99.90
15103;DHT22;7652;53.584;9.998;2022-07-25T07:04:04;26.30;99.90
15103;DHT22;7652;53.584;9.998;2022-07-25T07:07:08;26.10;99.90
15103;DHT22;7652;53.584;9.998;2022-07-25T07:10:11;26.00;99.90
15103;DHT22;7652;53.584;9.998;2022-07-25T07:13:15;25.80;99.90
15103;DHT22;7652;53.584;9.998;2022-07-25T07:16:25;25.90;99.90
15103;DHT22;7652;53.584;9.998;2022-07-25T07:19:28;26.00;99.90
15103;DHT22;7652;53.584;9.998;2022-07-25T07:22:31;26.00;99.90
15103;DHT22;7652;53.584;9.998;2022-07-25T07:25:34;26.10;99.90
15103;DHT22;7652;53.584;9.998;2022-07-25T07:28:39;26.00;99.90
15103;DHT22;7652;53.584;9.998;2022-07-25T07:31:42;26.20;99.90
15103;DHT22;7652;53.584;9.998;2022-07-25T07:34:45;26.40;99.90
15103;DHT22;7652;53.584;9.998;2022-07-25T07:37:48;26.60;99.90
15103;DHT22;7652;53.584;9.998;2022-07-25T07:40:51;26.60;99.90
15103;DHT22;7652;53.584;9.998;2022-07-25T07:43:56;26.60;99.90
15103;DHT22;7652;53.584;9.998;2022-07-25T07:46:59;26.60;99.90
15103;DHT22;7652;53.584;9.998;2022-07-25T07:50:04;26.70;99.90
15103;DHT22;7652;53.584;9.998;2022-07-25T07:53:07;26.70;99.90
15103;DHT22;7652;53.584;9.998;2022-07-25T07:56:10;26.80;99.90
15103;DHT22;7652;53.584;9.998;2022-07-25T07:59:14;26.90;99.90
15103;DHT22;7652;53.584;9.998;2022-07-25T08:02:17;27.00;99.90
15103;DHT22;7652;53.584;9.998;2022-07-25T08:05:21;27.00;99.90
15103;DHT22;7652;53.584;9.998;2022-07-25T08:08:24;27.10;99.90
15103;DHT22;7652;53.584;9.998;2022-07-25T08:11:32;27.20;99.90
15103;DHT22;7652;53.584;9.998;2022-07-25T08:14:36;27.20;99.90
15103;DHT22;7652;53.584;9.998;2022-07-25T08:17:39;27.40;99.90
15103;DHT22;7652;53.584;9.998;2022-07-25T08:20:43;27.50;99.90
15103;DHT22;7652;53.584;9.998;2022-07-25T08:23:46;27.60;99.90
15103;DHT22;7652;53.584;9.998;2022-07-25T08:26:50;27.70;99.90
15103;DHT22;7652;53.584;9.998;2022-07-25T08:29:54;27.80;99.90
15103;DHT22;7652;53.584;9.998;2022-07-25T08:33:00;27.90;99.90
15103;DHT22;7652;53.584;9.998;2022-07-25T08:36:04;28.10;99.90
15103;DHT22;7652;53.584;9.998;2022-07-25T08:39:08;28.30;99.90
15103;DHT22;7652;53.584;9.998;2022-07-25T08:42:11;28.40;99.90
15103;DHT22;7652;53.584;9.998;2022-07-25T08:45:16;28.60;99.90
15103;DHT22;7652;53.584;9.998;2022-07-25T08:48:22;28.70;99.90
15103;DHT22;7652;53.584;9.998;2022-07-25T08:51:27;28.90;99.90
15103;DHT22;7652;53.584;9.998;2022-07-25T08:54:30;29.00;99.90
15103;DHT22;7652;53.584;9.998;2022-07-25T08:57:35;29.20;99.90
15103;DHT22;7652;53.584;9.998;2022-07-25T09:00:43;29.40;99.90
15103;DHT22;7652;53.584;9.998;2022-07-25T09:03:47;29.50;99.20
15103;DHT22;7652;53.584;9.998;2022-07-25T09:06:50;29.70;98.50
15103;DHT22;7652;53.584;9.998;2022-07-25T09:09:53;29.90;99.20
15103;DHT22;7652;53.584;9.998;2022-07-25T09:12:58;30.10;96.90
15103;DHT22;7652;53.584;9.998;2022-07-25T09:16:04;30.20;96.10
15103;DHT22;7652;53.584;9.998;2022-07-25T09:19:09;30.20;96.20
15103;DHT22;7652;53.584;9.998;2022-07-25T09:22:13;30.20;96.10
15103;DHT22;7652;53.584;9.998;2022-07-25T09:25:21;30.20;96.30
15103;DHT22;7652;53.584;9.998;2022-07-25T09:28:24;30.20;96.50
15103;DHT22;7652;53.584;9.998;2022-07-25T09:31:32;30.20;96.50
15103;DHT22;7652;53.584;9.998;2022-07-25T09:34:38;30.30;96.40
15103;DHT22;7652;53.584;9.998;2022-07-25T09:37:41;30.40;96.20
15103;DHT22;7652;53.584;9.998;2022-07-25T09:40:53;30.60;95.60
15103;DHT22;7652;53.584;9.998;2022-07-25T09:43:56;30.70;95.10
15103;DHT22;7652;53.584;9.998;2022-07-25T09:47:11;30.90;95.10
15103;DHT22;7652;53.584;9.998;2022-07-25T09:50:15;31.00;95.20
15103;DHT22;7652;53.584;9.998;2022-07-25T09:53:19;31.10;95.30
15103;DHT22;7652;53.584;9.998;2022-07-25T09:56:22;31.20;94.10
15103;DHT22;7652;53.584;9.998;2022-07-25T09:59:25;31.20;94.10
15103;DHT22;7652;53.584;9.998;2022-07-25T10:02:39;31.20;93.80
15103;DHT22;7652;53.584;9.998;2022-07-25T10:05:50;31.30;93.90
15103;DHT22;7652;53.584;9.998;2022-07-25T10:08:58;31.40;93.90
15103;DHT22;7652;53.584;9.998;2022-07-25T10:12:05;31.50;93.70
15103;DHT22;7652;53.584;9.998;2022-07-25T10:15:10;31.50;93.10
15103;DHT22;7652;53.584;9.998;2022-07-25T10:18:17;31.60;92.60
15103;DHT22;7652;53.584;9.998;2022-07-25T10:21:21;31.60;92.90
15103;DHT22;7652;53.584;9.998;2022-07-25T10:24:32;31.60;92.70
15103;DHT22;7652;53.584;9.998;2022-07-25T10:27:41;31.70;92.50
15103;DHT22;7652;53.584;9.998;2022-07-25T10:30:45;31.80;92.80
15103;DHT22;7652;53.584;9.998;2022-07-25T10:33:55;31.80;93.10
15103;DHT22;7652;53.584;9.998;2022-07-25T10:37:08;31.80;93.00
15103;DHT22;7652;53.584;9.998;2022-07-25T10:40:27;31.90;92.30
15103;DHT22;7652;53.584;9.998;2022-07-25T10:43:35;31.90;93.10
15103;DHT22;7652;53.584;9.998;2022-07-25T10:46:39;31.90;93.00
15103;DHT22;7652;53.584;9.998;2022-07-25T10:49:46;31.90;93.30
15103;DHT22;7652;53.584;9.998;2022-07-25T10:53:10;31.80;92.60
15103;DHT22;7652;53.584;9.998;2022-07-25T10:56:15;31.80;92.50
15103;DHT22;7652;53.584;9.998;2022-07-25T10:59:28;31.80;92.40
15103;DHT22;7652;53.584;9.998;2022-07-25T11:02:32;31.90;91.80
15103;DHT22;7652;53.584;9.998;2022-07-25T11:05:44;31.90;92.60
15103;DHT22;7652;53.584;9.998;2022-07-25T11:08:48;31.90;92.10
15103;DHT22;7652;53.584;9.998;2022-07-25T11:11:54;31.80;91.90
15103;DHT22;7652;53.584;9.998;2022-07-25T11:14:59;31.70;91.90
15103;DHT22;7652;53.584;9.998;2022-07-25T11:18:03;31.60;91.90
15103;DHT22;7652;53.584;9.998;2022-07-25T11:21:08;31.50;92.30
15103;DHT22;7652;53.584;9.998;2022-07-25T11:24:11;31.40;92.10
15103;DHT22;7652;53.584;9.998;2022-07-25T11:27:20;31.50;91.60
15103;DHT22;7652;53.584;9.998;2022-07-25T11:30:24;31.50;92.30
15103;DHT22;7652;53.584;9.998;2022-07-25T11:33:28;31.60;93.00
15103;DHT22;7652;53.584;9.998;2022-07-25T11:36:32;31.60;93.10
15103;DHT22;7652;53.584;9.998;2022-07-25T11:39:38;31.70;93.90
15103;DHT22;7652;53.584;9.998;2022-07-25T11:42:44;31.80;93.30
15103;DHT22;7652;53.584;9.998;2022-07-25T11:45:55;31.90;93.70
15103;DHT22;7652;53.584;9.998;2022-07-25T11:49:03;32.10;92.00
15103;DHT22;7652;53.584;9.998;2022-07-25T11:52:18;32.30;92.30
15103;DHT22;7652;53.584;9.998;2022-07-25T11:55:27;32.50;90.90
15103;DHT22;7652;53.584;9.998;2022-07-25T11:58:30;32.50;89.80
15103;DHT22;7652;53.584;9.998;2022-07-25T12:01:34;32.50;90.10
15103;DHT22;7652;53.584;9.998;2022-07-25T12:04:38;32.60;90.20
15103;DHT22;7652;53.584;9.998;2022-07-25T12:07:43;32.80;90.40
15103;DHT22;7652;53.584;9.998;2022-07-25T12:10:48;32.90;88.80
15103;DHT22;7652;53.584;9.998;2022-07-25T12:14:02;33.00;88.00
15103;DHT22;7652;53.584;9.998;2022-07-25T12:17:05;33.20;86.00
15103;DHT22;7652;53.584;9.998;2022-07-25T12:20:15;33.30;85.10
15103;DHT22;7652;53.584;9.998;2022-07-25T12:23:20;33.30;84.40
15103;DHT22;7652;53.584;9.998;2022-07-25T12:26:23;33.50;84.00
15103;DHT22;7652;53.584;9.998;2022-07-25T12:29:26;33.80;83.10
15103;DHT22;7652;53.584;9.998;2022-07-25T12:32:29;33.70;82.50
15103;DHT22;7652;53.584;9.998;2022-07-25T12:35:33;33.50;82.90
15103;DHT22;7652;53.584;9.998;2022-07-25T12:38:39;33.40;83.30
15103;DHT22;7652;53.584;9.998;2022-07-25T12:41:42;33.40;83.80
15103;DHT22;7652;53.584;9.998;2022-07-25T12:44:45;33.40;84.00
15103;DHT22;7652;53.584;9.998;2022-07-25T12:47:48;33.70;83.40
15103;DHT22;7652;53.584;9.998;2022-07-25T12:50:51;33.60;84.90
15103;DHT22;7652;53.584;9.998;2022-07-25T12:53:56;33.40;84.10
15103;DHT22;7652;53.584;9.998;2022-07-25T12:56:59;33.20;84.40
15103;DHT22;7652;53.584;9.998;2022-07-25T13:00:03;33.00;85.30
15103;DHT22;7652;53.584;9.998;2022-07-25T13:03:06;32.70;85.50
15103;DHT22;7652;53.584;9.998;2022-07-25T13:06:09;32.50;86.30
15103;DHT22;7652;53.584;9.998;2022-07-25T13:09:13;32.20;87.20
15103;DHT22;7652;53.584;9.998;2022-07-25T13:12:16;32.10;87.50
15103;DHT22;7652;53.584;9.998;2022-07-25T13:15:20;32.00;88.10
15103;DHT22;7652;53.584;9.998;2022-07-25T13:18:24;32.10;89.20
15103;DHT22;7652;53.584;9.998;2022-07-25T13:21:27;32.10;89.80
15103;DHT22;7652;53.584;9.998;2022-07-25T13:24:33;32.30;88.40
15103;DHT22;7652;53.584;9.998;2022-07-25T13:27:36;32.30;88.20
15103;DHT22;7652;53.584;9.998;2022-07-25T13:30:40;32.30;88.90
15103;DHT22;7652;53.584;9.998;2022-07-25T13:33:43;32.40;89.70
15103;DHT22;7652;53.584;9.998;2022-07-25T13:36:46;32.40;90.00
15103;DHT22;7652;53.584;9.998;2022-07-25T13:39:50;32.30;90.10
15103;DHT22;7652;53.584;9.998;2022-07-25T13:42:53;32.20;90.20
15103;DHT22;7652;53.584;9.998;2022-07-25T13:45:57;32.20;89.80
15103;DHT22;7652;53.584;9.998;2022-07-25T13:49:00;32.20;89.40
15103;DHT22;7652;53.584;9.998;2022-07-25T13:52:03;32.20;89.80
15103;DHT22;7652;53.584;9.998;2022-07-25T13:55:08;32.20;90.00
15103;DHT22;7652;53.584;9.998;2022-07-25T13:58:12;32.10;89.90
15103;DHT22;7652;53.584;9.998;2022-07-25T14:01:15;32.00;90.40
15103;DHT22;7652;53.584;9.998;2022-07-25T14:04:19;32.00;91.20
15103;DHT22;7652;53.584;9.998;2022-07-25T14:07:22;31.90;91.20
15103;DHT22;7652;53.584;9.998;2022-07-25T14:10:26;31.80;91.10
15103;DHT22;7652;53.584;9.998;2022-07-25T14:13:29;31.70;91.50
15103;DHT22;7652;53.584;9.998;2022-07-25T14:16:33;31.50;91.50
15103;DHT22;7652;53.584;9.998;2022-07-25T14:19:36;31.40;92.90
15103;DHT22;7652;53.584;9.998;2022-07-25T14:22:39;31.00;94.90
15103;DHT22;7652;53.584;9.998;2022-07-25T14:25:46;30.30;96.70
15103;DHT22;7652;53.584;9.998;2022-07-25T14:28:49;29.90;97.50
15103;DHT22;7652;53.584;9.998;2022-07-25T14:31:52;29.60;98.10
15103;DHT22;7652;53.584;9.998;2022-07-25T14:34:55;29.30;98.80
15103;DHT22;7652;53.584;9.998;2022-07-25T14:37:59;28.90;99.60
15103;DHT22;7652;53.584;9.998;2022-07-25T14:41:03;28.70;99.50
15103;DHT22;7652;53.584;9.998;2022-07-25T14:44:13;28.70;99.50
15103;DHT22;7652;53.584;9.998;2022-07-25T14:47:16;28.60;98.80
15103;DHT22;7652;53.584;9.998;2022-07-25T14:50:20;28.30;99.50
15103;DHT22;7652;53.584;9.998;2022-07-25T14:53:24;28.10;99.90
15103;DHT22;7652;53.584;9.998;2022-07-25T14:56:28;27.80;99.90
15103;DHT22;7652;53.584;9.998;2022-07-25T14:59:31;27.50;99.90
15103;DHT22;7652;53.584;9.998;2022-07-25T15:02:34;27.20;99.90
15103;DHT22;7652;53.584;9.998;2022-07-25T15:05:37;27.10;99.90
15103;DHT22;7652;53.584;9.998;2022-07-25T15:08:40;26.90;99.90
15103;DHT22;7652;53.584;9.998;2022-07-25T15:11:44;26.60;99.90
15103;DHT22;7652;53.584;9.998;2022-07-25T15:14:48;26.20;99.90
15103;DHT22;7652;53.584;9.998;2022-07-25T15:17:51;26.10;99.90
15103;DHT22;7652;53.584;9.998;2022-07-25T15:20:54;25.90;99.90
15103;DHT22;7652;53.584;9.998;2022-07-25T15:23:57;25.70;99.90
15103;DHT22;7652;53.584;9.998;2022-07-25T15:27:02;25.60;99.90
15103;DHT22;7652;53.584;9.998;2022-07-25T15:30:06;25.40;99.90
15103;DHT22;7652;53.584;9.998;2022-07-25T15:33:09;25.20;99.90
15103;DHT22;7652;53.584;9.998;2022-07-25T15:36:12;25.00;99.90
15103;DHT22;7652;53.584;9.998;2022-07-25T15:39:15;24.70;99.90
15103;DHT22;7652;53.584;9.998;2022-07-25T15:42:21;24.30;99.90
15103;DHT22;7652;53.584;9.998;2022-07-25T15:45:30;24.30;99.90
15103;DHT22;7652;53.584;9.998;2022-07-25T15:48:34;24.00;99.90
15103;DHT22;7652;53.584;9.998;2022-07-25T15:51:37;23.70;99.90
15103;DHT22;7652;53.584;9.998;2022-07-25T15:54:40;23.30;99.90
15103;DHT22;7652;53.584;9.998;2022-07-25T15:57:45;22.70;99.90
15103;DHT22;7652;53.584;9.998;2022-07-25T16:00:48;21.90;99.90
15103;DHT22;7652;53.584;9.998;2022-07-25T16:03:51;21.60;99.90
15103;DHT22;7652;53.584;9.998;2022-07-25T16:06:54;21.60;99.90
15103;DHT22;7652;53.584;9.998;2022-07-25T16:09:58;21.50;99.90
15103;DHT22;7652;53.584;9.998;2022-07-25T16:13:03;21.50;99.90
15103;DHT22;7652;53.584;9.998;2022-07-25T16:16:06;21.30;99.90
15103;DHT22;7652;53.584;9.998;2022-07-25T16:19:10;21.30;99.90
15103;DHT22;7652;53.584;9.998;2022-07-25T16:22:13;21.30;99.90
15103;DHT22;7652;53.584;9.998;2022-07-25T16:25:16;21.40;99.90
15103;DHT22;7652;53.584;9.998;2022-07-25T16:28:21;21.50;99.90
15103;DHT22;7652;53.584;9.998;2022-07-25T16:31:24;21.40;99.90
15103;DHT22;7652;53.584;9.998;2022-07-25T16:34:28;21.40;99.90
15103;DHT22;7652;53.584;9.998;2022-07-25T16:37:31;21.30;99.90
15103;DHT22;7652;53.584;9.998;2022-07-25T16:40:34;21.50;99.90
15103;DHT22;7652;53.584;9.998;2022-07-25T16:43:38;21.60;99.90
15103;DHT22;7652;53.584;9.998;2022-07-25T16:46:41;21.80;99.90
15103;DHT22;7652;53.584;9.998;2022-07-25T16:49:44;21.90;99.90
15103;DHT22;7652;53.584;9.998;2022-07-25T16:52:47;21.90;99.90
15103;DHT22;7652;53.584;9.998;2022-07-25T16:55:50;21.80;99.90
15103;DHT22;7652;53.584;9.998;2022-07-25T16:58:55;21.80;99.90
15103;DHT22;7652;53.584;9.998;2022-07-25T17:01:58;21.90;99.90
15103;DHT22;7652;53.584;9.998;2022-07-25T17:05:01;21.90;99.90
15103;DHT22;7652;53.584;9.998;2022-07-25T17:08:04;21.90;99.90
15103;DHT22;7652;53.584;9.998;2022-07-25T17:11:07;21.80;99.90
15103;DHT22;7652;53.584;9.998;2022-07-25T17:14:12;21.90;99.90
15103;DHT22;7652;53.584;9.998;2022-07-25T17:17:15;21.90;99.90
15103;DHT22;7652;53.584;9.998;2022-07-25T17:20:18;21.90;99.90
15103;DHT22;7652;53.584;9.998;2022-07-25T17:23:21;22.00;99.90
15103;DHT22;7652;53.584;9.998;2022-07-25T17:26:24;22.00;99.90
15103;DHT22;7652;53.584;9.998;2022-07-25T17:29:29;22.00;99.90
15103;DHT22;7652;53.584;9.998;2022-07-25T17:32:32;21.90;99.90
15103;DHT22;7652;53.584;9.998;2022-07-25T17:35:35;21.90;99.90
15103;DHT22;7652;53.584;9.998;2022-07-25T17:38:38;21.90;99.90
15103;DHT22;7652;53.584;9.998;2022-07-25T17:41:41;21.90;99.90
15103;DHT22;7652;53.584;9.998;2022-07-25T17:44:45;21.90;99.90
15103;DHT22;7652;53.584;9.998;2022-07-25T17:47:48;21.80;99.90
15103;DHT22;7652;53.584;9.998;2022-07-25T17:50:53;21.70;99.90
15103;DHT22;7652;53.584;9.998;2022-07-25T17:53:56;21.70;99.90
15103;DHT22;7652;53.584;9.998;2022-07-25T17:56:59;21.60;99.90
15103;DHT22;7652;53.584;9.998;2022-07-25T18:00:05;21.50;99.90
15103;DHT22;7652;53.584;9.998;2022-07-25T18:03:08;21.40;99.90
15103;DHT22;7652;53.584;9.998;2022-07-25T18:06:11;21.30;99.90
15103;DHT22;7652;53.584;9.998;2022-07-25T18:09:14;21.30;99.90
15103;DHT22;7652;53.584;9.998;2022-07-25T18:12:18;21.30;99.90
15103;DHT22;7652;53.584;9.998;2022-07-25T18:15:22;21.20;99.90
15103;DHT22;7652;53.584;9.998;2022-07-25T18:18:25;21.20;99.90
15103;DHT22;7652;53.584;9.998;2022-07-25T18:21:28;21.20;99.90
15103;DHT22;7652;53.584;9.998;2022-07-25T18:24:32;21.10;99.90
15103;DHT22;7652;53.584;9.998;2022-07-25T18:27:35;21.20;99.90
15103;DHT22;7652;53.584;9.998;2022-07-25T18:30:39;21.20;99.90
15103;DHT22;7652;53.584;9.998;2022-07-25T18:33:42;21.20;99.90
15103;DHT22;7652;53.584;9.998;2022-07-25T18:36:46;21.20;99.90
15103;DHT22;7652;53.584;9.998;2022-07-25T18:39:49;21.30;99.90
15103;DHT22;7652;53.584;9.998;2022-07-25T18:42:52;21.20;99.90
15103;DHT22;7652;53.584;9.998;2022-07-25T18:45:57;21.20;99.90
15103;DHT22;7652;53.584;9.998;2022-07-25T18:49:02;21.10;99.90
15103;DHT22;7652;53.584;9.998;2022-07-25T18:52:05;21.10;99.90
15103;DHT22;7652;53.584;9.998;2022-07-25T18:55:09;21.10;99.90
15103;DHT22;7652;53.584;9.998;2022-07-25T18:58:12;21.00;99.90
15103;DHT22;7652;53.584;9.998;2022-07-25T19:01:18;20.90;99.90
15103;DHT22;7652;53.584;9.998;2022-07-25T19:04:21;21.00;99.90
15103;DHT22;7652;53.584;9.998;2022-07-25T19:07:24;20.90;99.90
15103;DHT22;7652;53.584;9.998;2022-07-25T19:10:27;20.90;99.90
15103;DHT22;7652;53.584;9.998;2022-07-25T19:13:30;20.90;99.90
15103;DHT22;7652;53.584;9.998;2022-07-25T19:16:53;20.80;99.90
15103;DHT22;7652;53.584;9.998;2022-07-25T19:19:59;20.60;99.90
15103;DHT22;7652;53.584;9.998;2022-07-25T19:23:02;20.60;99.90
15103;DHT22;7652;53.584;9.998;2022-07-25T19:26:06;20.60;99.90
15103;DHT22;7652;53.584;9.998;2022-07-25T19:29:09;20.60;99.90
15103;DHT22;7652;53.584;9.998;2022-07-25T19:32:14;20.70;99.90
15103;DHT22;7652;53.584;9.998;2022-07-25T19:35:19;20.70;99.90
15103;DHT22;7652;53.584;9.998;2022-07-25T19:38:27;20.70;99.90
15103;DHT22;7652;53.584;9.998;2022-07-25T19:41:30;20.70;99.90